createdAt,value
2023-04-18T00:01:58.104Z,16.02
2023-04-18T00:04:28.965Z,16.20
2023-04-18T00:07:01.638Z,15.90
2023-04-18T00:09:33.085Z,14.98
2023-04-18T00:12:04.959Z,15.98
2023-04-18T00:14:38.074Z,16.33
2023-04-18T00:17:09.478Z,14.98
2023-04-18T00:19:41.837Z,16.12
2023-04-18T00:22:15.101Z,14.00
2023-04-18T00:24:45.559Z,15.63
2023-04-18T00:27:16.594Z,15.47
2023-04-18T00:29:47.529Z,14.95
2023-04-18T00:32:21.293Z,15.58
2023-04-18T00:34:51.780Z,15.57
2023-04-18T00:37:22.252Z,15.90
2023-04-18T00:39:53.937Z,15.75
2023-04-18T00:42:26.289Z,15.45
2023-04-18T00:44:56.970Z,14.90
2023-04-18T00:47:29.528Z,16.05
2023-04-18T00:50:02.509Z,14.97
2023-04-18T00:52:35.282Z,15.50
2023-04-18T00:55:09.322Z,15.87
2023-04-18T00:57:41.536Z,15.90
2023-04-18T01:00:13.162Z,15.23
2023-04-18T01:02:44.089Z,15.58
2023-04-18T01:05:15.139Z,16.10
2023-04-18T01:07:46.187Z,15.40
2023-04-18T01:10:17.014Z,15.07
2023-04-18T01:12:47.674Z,16.55
2023-04-18T01:15:18.196Z,16.48
2023-04-18T01:17:48.818Z,15.10
2023-04-18T01:20:25.237Z,15.32
2023-04-18T01:22:57.133Z,15.03
2023-04-18T01:25:27.737Z,15.28
2023-04-18T01:27:58.940Z,14.43
2023-04-18T01:30:30.808Z,14.90
2023-04-18T01:33:06.599Z,15.18
2023-04-18T01:35:37.257Z,15.30
2023-04-18T01:38:07.708Z,15.10
2023-04-18T01:40:39.230Z,14.83
2023-04-18T01:43:09.730Z,14.33
2023-04-18T01:45:43.056Z,14.58
2023-04-18T01:48:13.702Z,15.03
2023-04-18T01:50:44.603Z,14.93
2023-04-18T01:53:17.211Z,14.95
2023-04-18T01:55:51.990Z,14.47
2023-04-18T01:58:23.818Z,14.63
2023-04-18T02:00:57.764Z,15.00
2023-04-18T02:03:28.620Z,14.85
2023-04-18T02:05:59.523Z,14.57
2023-04-18T02:08:32.987Z,14.47
2023-04-18T02:11:04.166Z,14.58
2023-04-18T02:13:34.716Z,14.70
2023-04-18T02:16:06.896Z,14.68
2023-04-18T02:18:38.991Z,14.20
2023-04-18T02:21:11.190Z,13.85
2023-04-18T02:23:42.714Z,14.38
2023-04-18T02:26:13.352Z,12.88
2023-04-18T02:28:44.094Z,13.73
2023-04-18T02:31:15.930Z,13.83
2023-04-18T02:33:48.216Z,13.20
2023-04-18T02:36:18.862Z,13.35
2023-04-18T02:38:49.542Z,13.97
2023-04-18T02:41:21.857Z,13.48
2023-04-18T02:43:52.316Z,13.97
2023-04-18T02:46:24.676Z,13.70
2023-04-18T02:49:02.160Z,13.70
2023-04-18T02:51:33.049Z,14.17
2023-04-18T02:54:03.630Z,13.62
2023-04-18T02:56:37.308Z,13.38
2023-04-18T02:59:09.981Z,13.20
2023-04-18T03:01:42.134Z,13.32
2023-04-18T03:04:14.404Z,12.88
2023-04-18T03:06:48.352Z,13.93
2023-04-18T03:09:18.873Z,13.43
2023-04-18T03:11:49.629Z,13.68
2023-04-18T03:14:20.152Z,12.88
2023-04-18T03:16:54.592Z,13.00
2023-04-18T03:19:23.451Z,12.87
2023-04-18T03:21:55.611Z,13.30
2023-04-18T03:24:27.900Z,13.30
2023-04-18T03:27:00.189Z,13.05
2023-04-18T03:29:31.188Z,13.25
2023-04-18T03:32:02.499Z,13.03
2023-04-18T03:34:33.019Z,12.37
2023-04-18T03:37:05.112Z,12.30
2023-04-18T03:39:35.666Z,12.93
2023-04-18T03:42:06.552Z,13.32
2023-04-18T03:44:38.552Z,12.93
2023-04-18T03:47:09.382Z,13.60
2023-04-18T03:49:41.485Z,13.55
2023-04-18T03:52:11.980Z,12.68
2023-04-18T03:54:43.027Z,13.00
2023-04-18T03:57:14.699Z,13.85
2023-04-18T03:59:47.829Z,13.32
2023-04-18T04:02:18.256Z,13.68
2023-04-18T04:04:49.487Z,12.60
2023-04-18T04:07:20.041Z,13.45
2023-04-18T04:09:50.660Z,13.68
2023-04-18T04:12:21.232Z,13.77
2023-04-18T04:14:51.905Z,13.32
2023-04-18T04:17:22.506Z,13.53
2023-04-18T04:19:53.508Z,13.60
2023-04-18T04:22:24.066Z,13.37
2023-04-18T04:24:57.793Z,13.22
2023-04-18T04:27:29.992Z,14.03
2023-04-18T04:30:02.834Z,14.05
2023-04-18T04:32:33.717Z,13.43
2023-04-18T04:35:04.444Z,14.80
2023-04-18T04:37:35.079Z,14.45
2023-04-18T04:40:06.542Z,14.80
2023-04-18T04:42:40.482Z,14.47
2023-04-18T04:45:12.433Z,13.62
2023-04-18T04:47:43.000Z,14.15
2023-04-18T04:50:18.442Z,13.70
2023-04-18T04:52:50.414Z,13.43
2023-04-18T04:55:21.264Z,14.50
2023-04-18T04:57:51.917Z,14.80
2023-04-18T05:00:22.816Z,13.72
2023-04-18T05:02:54.934Z,14.68
2023-04-18T05:05:26.611Z,15.08
2023-04-18T05:07:57.243Z,14.97
2023-04-18T05:10:28.504Z,14.95
2023-04-18T05:12:59.001Z,13.95
2023-04-18T05:15:29.527Z,12.73
2023-04-18T05:18:00.172Z,12.18
2023-04-18T05:20:32.330Z,12.60
2023-04-18T05:23:04.096Z,13.18
2023-04-18T05:25:34.681Z,12.07
2023-04-18T05:28:05.285Z,11.88
2023-04-18T05:30:36.052Z,12.47
2023-04-18T05:33:08.086Z,12.47
2023-04-18T05:35:39.384Z,11.88
2023-04-18T05:38:10.451Z,12.65
2023-04-18T05:40:43.420Z,12.18
2023-04-18T05:43:16.966Z,12.10
2023-04-18T05:45:47.785Z,11.63
2023-04-18T05:48:21.658Z,12.05
2023-04-18T05:50:54.045Z,11.68
2023-04-18T05:53:26.457Z,11.15
2023-04-18T05:55:58.924Z,11.22
2023-04-18T05:58:29.619Z,11.50
2023-04-18T06:01:01.161Z,11.95
2023-04-18T06:03:32.349Z,11.45
2023-04-18T06:06:04.777Z,10.80
2023-04-18T06:08:38.563Z,11.33
2023-04-18T06:11:10.412Z,12.00
2023-04-18T06:13:43.199Z,13.90
2023-04-18T06:16:15.258Z,12.07
2023-04-18T06:18:46.330Z,12.33
2023-04-18T06:21:18.020Z,11.80
2023-04-18T06:23:50.357Z,12.58
2023-04-18T06:26:22.232Z,13.98
2023-04-18T06:28:56.148Z,13.28
2023-04-18T06:31:27.285Z,13.20
2023-04-18T06:33:57.771Z,13.15
2023-04-18T06:36:32.452Z,13.18
2023-04-18T06:39:04.312Z,13.50
2023-04-18T06:41:45.242Z,13.95
2023-04-18T06:44:15.598Z,12.55
2023-04-18T06:46:47.819Z,12.05
2023-04-18T06:49:18.372Z,12.53
2023-04-18T06:51:50.819Z,11.97
2023-04-18T06:54:21.386Z,10.88
2023-04-18T06:56:53.484Z,11.00
2023-04-18T06:59:25.778Z,11.73
2023-04-18T07:01:56.386Z,13.65
2023-04-18T07:04:27.005Z,12.60
2023-04-18T07:06:57.513Z,11.53
2023-04-18T07:09:28.558Z,11.33
2023-04-18T07:12:01.126Z,12.03
2023-04-18T07:14:33.563Z,12.18
2023-04-18T07:17:05.114Z,10.78
2023-04-18T07:19:36.517Z,11.33
2023-04-18T07:22:07.012Z,11.20
2023-04-18T07:24:39.359Z,11.20
2023-04-18T07:27:09.926Z,10.75
2023-04-18T07:29:41.055Z,11.93
2023-04-18T07:32:11.636Z,10.60
2023-04-18T07:34:42.723Z,11.55
2023-04-18T07:37:15.150Z,11.38
2023-04-18T07:39:48.799Z,11.78
2023-04-18T07:42:19.499Z,11.22
2023-04-18T07:44:50.399Z,11.75
2023-04-18T07:47:22.386Z,11.55
2023-04-18T07:49:53.195Z,12.18
2023-04-18T07:52:23.937Z,11.20
2023-04-18T07:54:55.825Z,10.90
2023-04-18T07:57:26.418Z,11.03
2023-04-18T07:59:56.963Z,11.53
2023-04-18T08:02:27.576Z,11.73
2023-04-18T08:05:00.905Z,11.90
2023-04-18T08:07:30.465Z,11.50
2023-04-18T08:10:01.701Z,11.83
2023-04-18T08:12:32.256Z,12.05
2023-04-18T08:15:06.596Z,10.82
2023-04-18T08:17:38.869Z,11.45
2023-04-18T08:20:15.259Z,12.33
2023-04-18T08:23:02.341Z,11.22
2023-04-18T08:25:22.432Z,11.53
2023-04-18T08:27:54.171Z,11.75
2023-04-18T08:30:27.339Z,11.08
2023-04-18T08:32:58.105Z,11.55
2023-04-18T08:35:30.026Z,11.85
2023-04-18T08:38:01.590Z,12.23
2023-04-18T08:40:33.300Z,12.07
2023-04-18T08:43:07.201Z,11.70
2023-04-18T08:45:42.154Z,11.00
2023-04-18T08:48:14.157Z,11.70
2023-04-18T08:50:48.323Z,11.70
2023-04-18T08:53:19.286Z,11.90
2023-04-18T08:55:57.856Z,11.20
2023-04-18T08:58:30.736Z,11.85
2023-04-18T09:01:03.309Z,11.60
2023-04-18T09:03:41.637Z,11.68
2023-04-18T09:06:16.422Z,11.38
2023-04-18T09:09:00.523Z,11.28
2023-04-18T09:11:32.397Z,10.93
2023-04-18T09:14:03.481Z,12.35
2023-04-18T09:16:47.918Z,11.40
2023-04-18T09:19:19.082Z,11.83
2023-04-18T09:21:53.816Z,10.90
2023-04-18T09:24:27.698Z,11.50
2023-04-18T09:27:00.231Z,11.48
2023-04-18T09:29:47.701Z,10.58
2023-04-18T09:32:27.227Z,10.18
2023-04-18T09:35:04.063Z,11.08
2023-04-18T09:37:34.169Z,10.53
2023-04-18T09:40:09.179Z,10.82
2023-04-18T09:42:39.829Z,10.30
2023-04-18T09:45:12.217Z,11.43
2023-04-18T09:47:42.772Z,10.75
2023-04-18T09:50:16.871Z,10.70
2023-04-18T09:52:50.812Z,10.65
2023-04-18T09:55:20.983Z,10.72
2023-04-18T09:57:54.069Z,10.78
2023-04-18T10:00:26.592Z,12.30
2023-04-18T10:03:03.315Z,11.50
2023-04-18T10:05:36.435Z,11.40
2023-04-18T10:08:09.261Z,12.05
2023-04-18T10:10:40.833Z,12.23
2023-04-18T10:13:14.727Z,11.75
2023-04-18T10:15:46.165Z,10.95
2023-04-18T10:18:17.390Z,12.03
2023-04-18T10:20:48.261Z,11.80
2023-04-18T10:23:36.691Z,11.53
2023-04-18T10:26:11.782Z,10.90
2023-04-18T10:28:57.445Z,11.65
2023-04-18T10:31:30.132Z,10.98
2023-04-18T10:36:34.700Z,10.88
2023-04-18T10:39:25.387Z,11.12
2023-04-18T10:41:56.112Z,10.23
2023-04-18T10:44:27.480Z,11.00
2023-04-18T10:47:03.967Z,10.88
2023-04-18T10:49:36.912Z,10.90
2023-04-18T10:52:07.521Z,11.35
2023-04-18T10:54:45.817Z,10.80
2023-04-18T10:57:17.557Z,10.35
2023-04-18T10:59:54.687Z,10.32
2023-04-18T11:02:29.363Z,9.73
2023-04-18T11:05:02.960Z,9.93
2023-04-18T11:07:35.293Z,10.32
2023-04-18T11:10:10.094Z,9.95
2023-04-18T11:12:42.792Z,11.43
2023-04-18T11:15:20.651Z,11.10
2023-04-18T11:18:00.757Z,10.28
2023-04-18T11:20:39.530Z,10.43
2023-04-18T11:23:23.187Z,10.08
2023-04-18T11:25:56.655Z,10.15
2023-04-18T11:28:28.544Z,9.53
2023-04-18T11:31:00.257Z,9.95
2023-04-18T11:33:32.866Z,10.28
2023-04-18T11:36:05.782Z,9.58
2023-04-18T11:38:38.038Z,10.40
2023-04-18T11:41:14.657Z,10.40
2023-04-18T11:43:46.664Z,9.73
2023-04-18T11:46:17.288Z,10.28
2023-04-18T11:48:49.540Z,9.60
2023-04-18T11:51:38.706Z,9.48
2023-04-18T11:54:29.102Z,9.43
2023-04-18T11:56:59.897Z,9.33
2023-04-18T11:59:32.021Z,9.08
2023-04-18T12:02:15.433Z,10.08
2023-04-18T12:04:53.556Z,9.98
2023-04-18T12:07:37.751Z,10.43
2023-04-18T12:10:11.648Z,10.68
2023-04-18T12:12:46.795Z,10.65
2023-04-18T12:15:18.577Z,11.00
2023-04-18T12:17:52.415Z,11.48
2023-04-18T12:20:25.131Z,11.45
2023-04-18T12:22:57.449Z,11.45
2023-04-18T12:25:28.038Z,11.75
2023-04-18T12:28:04.624Z,11.70
2023-04-18T12:30:37.736Z,11.00
2023-04-18T12:33:11.715Z,11.10
2023-04-18T12:35:44.417Z,11.12
2023-04-18T12:38:18.364Z,11.20
2023-04-18T12:40:50.531Z,11.60
2023-04-18T12:43:23.052Z,11.85
2023-04-18T12:45:56.606Z,11.63
2023-04-18T12:48:28.433Z,11.93
2023-04-18T12:50:59.960Z,12.28
2023-04-18T12:53:30.595Z,12.03
2023-04-18T12:56:02.445Z,12.68
2023-04-18T12:58:37.135Z,12.25
2023-04-18T13:01:10.722Z,12.82
2023-04-18T13:03:42.773Z,12.53
2023-04-18T13:06:14.968Z,13.15
2023-04-18T13:08:47.430Z,12.78
2023-04-18T13:11:18.010Z,12.73
2023-04-18T13:13:49.538Z,12.88
2023-04-18T13:16:22.435Z,12.53
2023-04-18T13:18:54.457Z,13.15
2023-04-18T13:21:27.764Z,12.90
2023-04-18T13:23:58.328Z,13.35
2023-04-18T13:26:30.399Z,13.80
2023-04-18T13:29:02.619Z,14.33
2023-04-18T13:31:34.714Z,14.63
2023-04-18T13:34:05.429Z,13.80
2023-04-18T13:36:37.433Z,14.10
2023-04-18T13:39:10.730Z,13.85
2023-04-18T13:41:41.267Z,14.00
2023-04-18T13:44:11.737Z,13.10
2023-04-18T13:46:42.963Z,13.53
2023-04-18T13:49:15.717Z,13.32
2023-04-18T13:51:46.525Z,12.80
2023-04-18T13:54:17.952Z,11.63
2023-04-18T13:56:48.433Z,12.18
2023-04-18T13:59:19.061Z,11.38
2023-04-18T14:01:49.731Z,12.15
2023-04-18T14:04:25.146Z,11.57
2023-04-18T14:06:58.400Z,11.30
2023-04-18T14:09:30.408Z,12.13
2023-04-18T14:12:05.948Z,10.93
2023-04-18T14:14:37.165Z,11.00
2023-04-18T14:17:07.794Z,11.08
2023-04-18T14:19:38.400Z,11.22
2023-04-18T14:22:08.894Z,11.10
2023-04-18T14:24:41.426Z,10.72
2023-04-18T14:27:12.460Z,10.78
2023-04-18T14:29:43.067Z,10.90
2023-04-18T14:32:14.844Z,10.78
2023-04-18T14:34:47.044Z,10.72
2023-04-18T14:37:17.821Z,10.40
2023-04-18T14:39:48.810Z,11.12
2023-04-18T14:42:19.434Z,10.15
2023-04-18T14:44:51.068Z,10.45
2023-04-18T14:47:23.998Z,9.90
2023-04-18T14:49:54.880Z,9.88
2023-04-18T14:52:26.527Z,9.50
2023-04-18T14:54:57.481Z,9.68
2023-04-18T14:57:31.228Z,9.43
2023-04-18T15:00:04.938Z,9.53
2023-04-18T15:02:35.709Z,9.73
2023-04-18T15:05:07.449Z,9.50
2023-04-18T15:07:38.060Z,9.13
2023-04-18T15:10:12.162Z,8.65
2023-04-18T15:12:42.964Z,8.48
2023-04-18T15:15:14.457Z,8.48
2023-04-18T15:17:44.946Z,7.72
2023-04-18T15:20:17.704Z,7.97
2023-04-18T15:22:48.208Z,7.62
2023-04-18T15:25:18.900Z,8.05
2023-04-18T15:27:52.337Z,7.87
2023-04-18T15:30:24.050Z,7.80
2023-04-18T15:32:54.733Z,7.83
2023-04-18T15:35:29.802Z,7.30
2023-04-18T15:38:00.625Z,7.22
2023-04-18T15:40:33.190Z,6.95
2023-04-18T15:43:06.051Z,6.53
2023-04-18T15:45:38.588Z,6.47
2023-04-18T15:48:09.205Z,6.47
2023-04-18T15:50:42.324Z,6.95
2023-04-18T15:53:12.765Z,6.67
2023-04-18T15:55:43.330Z,5.97
2023-04-18T15:58:14.110Z,5.90
2023-04-18T16:00:46.863Z,6.10
2023-04-18T16:03:18.230Z,5.75
2023-04-18T16:05:49.016Z,5.58
2023-04-18T16:08:19.521Z,5.35
2023-04-18T16:10:51.575Z,5.40
2023-04-18T16:13:22.112Z,5.55
2023-04-18T16:15:52.696Z,5.50
2023-04-18T16:18:23.247Z,5.40
2023-04-18T16:20:53.822Z,5.33
2023-04-18T16:23:26.471Z,5.22
2023-04-18T16:25:57.346Z,4.72
2023-04-18T16:28:29.519Z,4.80
2023-04-18T16:31:00.294Z,5.40
2023-04-18T16:33:31.069Z,5.62
2023-04-18T16:36:05.280Z,7.05
2023-04-18T16:38:35.830Z,7.40
2023-04-18T16:41:06.645Z,6.37
2023-04-18T16:43:38.876Z,4.92
2023-04-18T16:46:11.265Z,5.08
2023-04-18T16:48:42.017Z,4.70
2023-04-18T16:51:13.736Z,4.72
2023-04-18T16:53:45.742Z,5.08
2023-04-18T16:56:37.101Z,4.25
2023-04-18T16:59:10.739Z,4.30
2023-04-18T17:01:42.448Z,4.58
2023-04-18T17:04:14.754Z,4.65
2023-04-18T17:09:46.427Z,4.37
2023-04-18T17:12:18.164Z,4.85
2023-04-18T17:14:48.763Z,4.37
2023-04-18T17:17:21.158Z,4.85
2023-04-18T17:19:51.656Z,5.20
2023-04-18T17:22:23.449Z,4.72
2023-04-18T17:24:53.895Z,4.90
2023-04-18T17:27:24.530Z,5.12
2023-04-18T17:29:58.313Z,4.78
2023-04-18T17:32:32.009Z,5.35
2023-04-18T17:35:04.415Z,5.25
2023-04-18T17:37:38.663Z,5.70
2023-04-18T17:40:12.380Z,5.75
2023-04-18T17:42:44.477Z,5.58
2023-04-18T17:45:17.272Z,5.35
2023-04-18T17:47:49.474Z,5.00
2023-04-18T17:50:20.241Z,6.10
2023-04-18T17:52:52.404Z,5.42
2023-04-18T17:55:22.814Z,7.50
2023-04-18T17:57:53.364Z,8.35
2023-04-18T18:00:26.876Z,9.13
2023-04-18T18:02:57.710Z,6.65
2023-04-18T18:05:28.296Z,5.67
2023-04-18T18:08:00.998Z,6.10
2023-04-18T18:10:33.344Z,5.60
2023-04-18T18:13:03.939Z,5.95
2023-04-18T18:15:35.399Z,5.95
2023-04-18T18:18:13.729Z,7.53
2023-04-18T18:20:44.399Z,5.95
2023-04-18T18:23:18.314Z,6.08
2023-04-18T18:25:50.734Z,6.55
2023-04-18T18:28:21.821Z,5.80
2023-04-18T18:30:58.921Z,5.45
2023-04-18T18:33:29.515Z,5.85
2023-04-18T18:36:01.470Z,5.87
2023-04-18T18:38:31.870Z,5.50
2023-04-18T18:41:04.661Z,5.22
2023-04-18T18:43:35.359Z,5.42
2023-04-18T18:46:06.110Z,5.42
2023-04-18T18:48:38.242Z,4.92
2023-04-18T18:51:10.059Z,5.62
2023-04-18T18:53:40.703Z,5.30
2023-04-18T18:56:11.193Z,5.12
2023-04-18T18:58:43.801Z,5.22
2023-04-18T19:01:23.488Z,5.70
2023-04-18T19:03:55.325Z,5.30
2023-04-18T19:06:27.798Z,5.20
2023-04-18T19:08:58.608Z,5.30
2023-04-18T19:11:30.041Z,4.97
2023-04-18T19:14:01.362Z,5.28
2023-04-18T19:16:33.699Z,5.40
2023-04-18T19:19:06.481Z,5.70
2023-04-18T19:21:38.880Z,6.15
2023-04-18T19:24:11.825Z,5.03
2023-04-18T19:26:43.842Z,5.33
2023-04-18T19:29:15.845Z,5.47
2023-04-18T19:31:46.545Z,5.60
2023-04-18T19:34:22.776Z,5.33
2023-04-18T19:36:53.374Z,5.40
2023-04-18T19:39:25.967Z,5.87
2023-04-18T19:41:57.079Z,5.28
2023-04-18T19:44:27.610Z,5.42
2023-04-18T19:46:59.714Z,5.83
2023-04-18T19:49:30.674Z,6.35
2023-04-18T19:52:01.675Z,6.20
2023-04-18T19:54:36.405Z,5.70
2023-04-18T19:57:06.894Z,6.60
2023-04-18T19:59:37.695Z,6.37
2023-04-18T20:02:08.255Z,6.75
2023-04-18T20:04:40.532Z,6.50
2023-04-18T20:07:14.181Z,6.28
2023-04-18T20:09:44.865Z,6.17
2023-04-18T20:12:16.294Z,5.85
2023-04-18T20:14:47.185Z,6.15
2023-04-18T20:17:17.814Z,6.62
2023-04-18T20:19:50.010Z,6.37
2023-04-18T20:22:20.898Z,6.15
2023-04-18T20:24:53.856Z,5.95
2023-04-18T20:27:24.712Z,6.00
2023-04-18T20:29:57.235Z,5.90
2023-04-18T20:32:28.036Z,6.70
2023-04-18T20:34:58.685Z,6.65
2023-04-18T20:37:29.442Z,6.75
2023-04-18T20:40:03.063Z,6.75
2023-04-18T20:42:36.977Z,6.95
2023-04-18T20:45:09.993Z,7.35
2023-04-18T20:47:44.151Z,7.60
2023-04-18T20:50:18.458Z,6.65
2023-04-18T20:52:49.369Z,6.50
2023-04-18T20:55:20.197Z,6.78
2023-04-18T20:57:51.402Z,7.05
2023-04-18T21:00:21.965Z,6.58
2023-04-18T21:02:53.762Z,6.62
2023-04-18T21:05:26.607Z,6.72
2023-04-18T21:07:59.673Z,6.65
2023-04-18T21:10:32.728Z,7.35
2023-04-18T21:13:06.185Z,7.20
2023-04-18T21:15:38.106Z,6.95
2023-04-18T21:18:09.829Z,7.33
2023-04-18T21:20:40.966Z,7.05
2023-04-18T21:23:12.593Z,7.97
2023-04-18T21:25:43.217Z,7.15
2023-04-18T21:28:13.945Z,7.58
2023-04-18T21:30:44.852Z,7.65
2023-04-18T21:33:19.065Z,7.70
2023-04-18T21:35:51.482Z,6.97
2023-04-18T21:38:23.929Z,7.45
2023-04-18T21:40:54.567Z,7.40
2023-04-18T21:43:27.704Z,7.53
2023-04-18T21:45:58.397Z,7.30
2023-04-18T21:48:29.219Z,7.67
2023-04-18T21:51:00.259Z,7.72
2023-04-18T21:53:31.830Z,8.13
2023-04-18T21:56:04.726Z,8.35
2023-04-18T21:58:36.266Z,6.80
2023-04-18T22:01:06.917Z,7.58
2023-04-18T22:03:37.962Z,7.83
2023-04-18T22:06:09.771Z,7.80
2023-04-18T22:08:42.085Z,7.25
2023-04-18T22:11:14.189Z,7.20
2023-04-18T22:13:46.070Z,7.20
2023-04-18T22:16:18.752Z,7.47
2023-04-18T22:18:49.476Z,6.58
2023-04-18T22:21:23.331Z,6.62
2023-04-18T22:23:53.844Z,6.72
2023-04-18T22:26:27.361Z,6.95
2023-04-18T22:28:58.358Z,7.25
2023-04-18T22:31:30.657Z,7.03
2023-04-18T22:34:06.080Z,6.83
2023-04-18T22:36:45.510Z,6.53
2023-04-18T22:39:16.020Z,6.60
2023-04-18T22:41:49.573Z,6.75
2023-04-18T22:44:20.089Z,5.72
2023-04-18T22:46:52.267Z,6.17
2023-04-18T22:49:24.514Z,6.65
2023-04-18T22:51:55.275Z,6.10
2023-04-18T22:54:27.129Z,5.53
2023-04-18T22:57:00.343Z,5.70
2023-04-18T22:59:31.932Z,6.03
2023-04-18T23:02:06.524Z,5.83
2023-04-18T23:04:37.034Z,5.60
2023-04-18T23:07:11.491Z,5.40
2023-04-18T23:09:41.883Z,5.77
2023-04-18T23:12:12.469Z,4.70
2023-04-18T23:14:46.074Z,5.25
2023-04-18T23:17:19.421Z,4.83
2023-04-18T23:19:49.899Z,5.12
2023-04-18T23:22:24.141Z,4.75
2023-04-18T23:24:56.383Z,4.70
2023-04-18T23:27:26.984Z,4.92
2023-04-18T23:29:57.589Z,4.60
2023-04-18T23:32:28.426Z,4.62
2023-04-18T23:35:00.635Z,4.60
2023-04-18T23:37:32.012Z,4.63
2023-04-18T23:40:05.393Z,4.67
2023-04-18T23:42:37.155Z,4.33
2023-04-18T23:45:08.523Z,4.15
2023-04-18T23:47:41.073Z,4.67
2023-04-18T23:50:12.453Z,4.50
2023-04-18T23:52:44.139Z,3.95
2023-04-18T23:55:21.640Z,4.27
2023-04-18T23:57:52.255Z,3.90
